createdAt,value
2023-02-01T00:00:57.580Z,0
2023-02-01T00:02:37.511Z,0
2023-02-01T00:04:17.081Z,0
2023-02-01T00:05:56.836Z,0
2023-02-01T00:07:36.610Z,0
2023-02-01T00:09:16.371Z,0
2023-02-01T00:10:56.161Z,0
2023-02-01T00:12:35.910Z,0
2023-02-01T00:14:15.655Z,0
2023-02-01T00:15:55.423Z,0
2023-02-01T00:17:35.193Z,0
2023-02-01T00:19:14.945Z,0
2023-02-01T00:20:54.718Z,0
2023-02-01T00:22:34.474Z,0
2023-02-01T00:24:14.257Z,0
2023-02-01T00:25:54.015Z,0
2023-02-01T00:27:33.780Z,0
2023-02-01T00:29:13.532Z,0
2023-02-01T00:30:53.354Z,0
2023-02-01T00:32:33.064Z,0
2023-02-01T00:34:12.821Z,0
2023-02-01T00:35:52.603Z,0
2023-02-01T00:37:32.352Z,0
2023-02-01T00:39:12.174Z,0
2023-02-01T00:40:51.888Z,0
2023-02-01T00:42:31.648Z,0
2023-02-01T00:44:11.413Z,0
2023-02-01T00:45:51.183Z,0
2023-02-01T00:47:30.930Z,0
2023-02-01T00:49:10.700Z,0
2023-02-01T00:50:50.452Z,0
2023-02-01T00:52:30.233Z,0
2023-02-01T00:54:09.985Z,0
2023-02-01T00:55:49.812Z,0
2023-02-01T00:57:29.519Z,0
2023-02-01T00:59:09.292Z,0
2023-02-01T01:00:49.091Z,0
2023-02-01T01:02:28.896Z,0
2023-02-01T01:04:08.571Z,0
2023-02-01T01:05:48.347Z,0
2023-02-01T01:07:28.105Z,0
2023-02-01T01:09:07.872Z,0
2023-02-01T01:10:47.657Z,0
2023-02-01T01:12:27.423Z,0
2023-02-01T01:14:07.228Z,0
2023-02-01T01:15:46.968Z,0
2023-02-01T01:17:26.685Z,0
2023-02-01T01:19:06.456Z,0
2023-02-01T01:20:46.222Z,0
2023-02-01T01:22:25.981Z,0
2023-02-01T01:24:05.808Z,0
2023-02-01T01:25:45.510Z,0
2023-02-01T01:27:25.291Z,0
2023-02-01T01:29:05.063Z,0
2023-02-01T01:30:44.805Z,0
2023-02-01T01:32:24.618Z,0
2023-02-01T01:34:04.391Z,0
2023-02-01T01:35:44.090Z,0
2023-02-01T01:37:23.843Z,0
2023-02-01T01:39:03.623Z,0
2023-02-01T01:42:23.155Z,0
2023-02-01T01:44:02.900Z,0
2023-02-01T01:45:42.682Z,0
2023-02-01T01:47:22.424Z,0
2023-02-01T01:49:02.212Z,0
2023-02-01T01:50:41.969Z,0
2023-02-01T01:52:21.721Z,0
2023-02-01T01:54:01.500Z,0
2023-02-01T01:55:41.274Z,0
2023-02-01T01:57:21.014Z,0
2023-02-01T01:59:00.793Z,0
2023-02-01T02:00:40.554Z,0
2023-02-01T02:02:20.317Z,0
2023-02-01T02:04:00.110Z,0
2023-02-01T02:05:39.833Z,0
2023-02-01T02:07:19.609Z,0
2023-02-01T02:08:59.403Z,0
2023-02-01T02:10:39.157Z,0
2023-02-01T02:12:18.899Z,0
2023-02-01T02:13:58.743Z,0
2023-02-01T02:15:38.426Z,0
2023-02-01T02:17:18.212Z,0
2023-02-01T02:18:57.941Z,0
2023-02-01T02:20:37.804Z,0
2023-02-01T02:22:17.471Z,0
2023-02-01T02:23:57.320Z,0
2023-02-01T02:25:37.017Z,0
2023-02-01T02:27:16.793Z,0
2023-02-01T02:28:56.534Z,0
2023-02-01T02:30:36.326Z,0
2023-02-01T02:32:16.073Z,0
2023-02-01T02:33:55.825Z,0
2023-02-01T02:35:35.595Z,0
2023-02-01T02:37:15.345Z,0
2023-02-01T02:38:55.111Z,0
2023-02-01T02:40:34.884Z,0
2023-02-01T02:42:14.645Z,0
2023-02-01T02:43:54.410Z,0
2023-02-01T02:45:34.168Z,0
2023-02-01T02:47:13.931Z,0
2023-02-01T02:48:53.705Z,0
2023-02-01T02:50:33.473Z,0
2023-02-01T02:52:13.261Z,0
2023-02-01T02:53:52.978Z,0
2023-02-01T02:55:32.774Z,0
2023-02-01T02:57:12.518Z,0
2023-02-01T02:58:52.279Z,0
2023-02-01T03:00:32.080Z,0
2023-02-01T03:02:11.872Z,0
2023-02-01T03:03:51.595Z,0
2023-02-01T03:05:31.339Z,0
2023-02-01T03:07:11.118Z,0
2023-02-01T03:08:50.847Z,0
2023-02-01T03:10:30.691Z,0
2023-02-01T03:12:10.390Z,0
2023-02-01T03:13:50.159Z,0
2023-02-01T03:15:29.912Z,0
2023-02-01T03:17:09.673Z,0
2023-02-01T03:18:49.451Z,0
2023-02-01T03:20:29.235Z,0
2023-02-01T03:22:08.969Z,0
2023-02-01T03:23:48.734Z,0
2023-02-01T03:25:28.513Z,0
2023-02-01T03:27:08.268Z,0
2023-02-01T03:28:48.036Z,0
2023-02-01T03:30:27.938Z,0
2023-02-01T03:32:07.574Z,0
2023-02-01T03:33:47.312Z,0
2023-02-01T03:35:27.075Z,0
2023-02-01T03:37:06.856Z,0
2023-02-01T03:38:46.610Z,0
2023-02-01T03:40:26.376Z,0
2023-02-01T03:42:06.155Z,0
2023-02-01T03:43:45.911Z,0
2023-02-01T03:45:25.663Z,0
2023-02-01T03:47:05.442Z,0
2023-02-01T03:48:45.212Z,0
2023-02-01T03:50:24.973Z,0
2023-02-01T03:52:04.766Z,0
2023-02-01T03:53:44.490Z,0
2023-02-01T03:55:24.312Z,0
2023-02-01T03:57:04.017Z,0
2023-02-01T03:58:43.783Z,0
2023-02-01T04:00:23.591Z,0
2023-02-01T04:02:03.297Z,0
2023-02-01T04:03:43.069Z,0
2023-02-01T04:05:22.823Z,0
2023-02-01T04:07:02.606Z,0
2023-02-01T04:08:42.383Z,0
2023-02-01T04:10:22.133Z,0
2023-02-01T04:12:01.901Z,0
2023-02-01T04:13:41.645Z,0
2023-02-01T04:15:21.413Z,0
2023-02-01T04:17:01.183Z,0
2023-02-01T04:18:40.942Z,0
2023-02-01T04:20:20.734Z,0
2023-02-01T04:22:00.471Z,0
2023-02-01T04:23:40.231Z,0
2023-02-01T04:25:20.013Z,0
2023-02-01T04:26:59.769Z,0
2023-02-01T04:28:39.525Z,0
2023-02-01T04:30:19.295Z,0
2023-02-01T04:31:59.073Z,0
2023-02-01T04:33:38.829Z,0
2023-02-01T04:35:18.599Z,0
2023-02-01T04:36:58.342Z,0
2023-02-01T04:38:38.128Z,0
2023-02-01T04:40:17.921Z,0
2023-02-01T04:41:57.632Z,0
2023-02-01T04:43:37.412Z,0
2023-02-01T04:45:17.170Z,0
2023-02-01T04:46:56.923Z,0
2023-02-01T04:48:36.692Z,0
2023-02-01T04:50:16.457Z,0
2023-02-01T04:51:56.230Z,0
2023-02-01T04:53:35.987Z,0
2023-02-01T04:55:15.754Z,0
2023-02-01T04:56:55.539Z,0
2023-02-01T04:58:35.288Z,0
2023-02-01T05:00:15.085Z,0
2023-02-01T05:01:54.847Z,0
2023-02-01T05:03:34.564Z,0
2023-02-01T05:05:14.332Z,0
2023-02-01T05:06:54.102Z,0
2023-02-01T05:08:33.855Z,0
2023-02-01T05:10:13.646Z,0
2023-02-01T05:11:53.390Z,0
2023-02-01T05:13:33.152Z,0
2023-02-01T05:15:12.918Z,0
2023-02-01T05:16:52.678Z,0
2023-02-01T05:18:32.449Z,0
2023-02-01T05:20:12.207Z,0
2023-02-01T05:21:51.971Z,0
2023-02-01T05:25:11.501Z,0
2023-02-01T05:26:51.273Z,0
2023-02-01T05:28:31.028Z,0
2023-02-01T05:30:10.843Z,0
2023-02-01T05:31:50.550Z,0
2023-02-01T05:33:30.331Z,0
2023-02-01T05:35:10.087Z,0
2023-02-01T05:36:49.848Z,0
2023-02-01T05:40:09.381Z,0
2023-02-01T05:41:49.139Z,0
2023-02-01T05:43:28.906Z,0
2023-02-01T05:45:08.670Z,0
2023-02-01T05:46:48.435Z,0
2023-02-01T05:48:28.188Z,0
2023-02-01T05:50:07.974Z,0
2023-02-01T05:51:47.728Z,0
2023-02-01T05:55:07.248Z,0
2023-02-01T05:56:47.057Z,0
2023-02-01T05:58:26.846Z,0
2023-02-01T06:00:06.530Z,0
2023-02-01T06:01:46.297Z,0
2023-02-01T06:05:05.910Z,0
2023-02-01T06:06:45.596Z,0
2023-02-01T06:08:25.349Z,0
2023-02-01T06:10:05.166Z,0
2023-02-01T06:11:44.888Z,0
2023-02-01T06:13:24.656Z,0
2023-02-01T06:15:04.399Z,0
2023-02-01T06:16:44.184Z,0
2023-02-01T06:18:23.942Z,0
2023-02-01T06:20:03.703Z,0
2023-02-01T06:21:43.470Z,0
2023-02-01T06:23:23.233Z,0
2023-02-01T06:26:42.763Z,0
2023-02-01T06:28:22.525Z,0
2023-02-01T06:30:02.302Z,0
2023-02-01T06:31:42.052Z,0
2023-02-01T06:33:21.798Z,0
2023-02-01T06:35:01.582Z,0
2023-02-01T06:36:41.361Z,0
2023-02-01T06:38:21.098Z,0
2023-02-01T06:40:00.899Z,0
2023-02-01T06:41:40.624Z,0
2023-02-01T06:43:20.386Z,0
2023-02-01T06:45:00.167Z,0
2023-02-01T06:46:39.909Z,0
2023-02-01T06:48:19.682Z,0
2023-02-01T06:49:59.469Z,0
2023-02-01T06:51:39.204Z,0
2023-02-01T06:53:19.016Z,0
2023-02-01T06:54:58.747Z,0
2023-02-01T06:56:38.512Z,0
2023-02-01T06:58:18.270Z,0
2023-02-01T06:59:58.051Z,0
2023-02-01T07:01:38.024Z,0
2023-02-01T07:03:17.559Z,0
2023-02-01T07:04:57.421Z,0
2023-02-01T07:06:37.082Z,0
2023-02-01T07:08:16.873Z,0.12
2023-02-01T07:09:56.651Z,0.12
2023-02-01T07:11:36.380Z,0
2023-02-01T07:13:16.161Z,0.12
2023-02-01T07:14:55.908Z,0.12
2023-02-01T07:16:35.670Z,0.12
2023-02-01T07:18:15.447Z,0
2023-02-01T07:19:55.223Z,0
2023-02-01T07:21:34.965Z,0
2023-02-01T07:23:14.744Z,0
2023-02-01T07:24:54.479Z,0
2023-02-01T07:26:34.261Z,0
2023-02-01T07:28:14.016Z,0
2023-02-01T07:29:53.808Z,0.12
2023-02-01T07:31:33.548Z,0.12
2023-02-01T07:33:13.345Z,0.12
2023-02-01T07:34:53.074Z,0.25
2023-02-01T07:36:32.831Z,0.5
2023-02-01T07:38:12.601Z,0.88
2023-02-01T07:39:52.373Z,1.14
2023-02-01T07:41:32.156Z,1.78
2023-02-01T07:43:11.915Z,2.56
2023-02-01T07:44:51.659Z,3.09
2023-02-01T07:46:31.461Z,2.84
2023-02-01T07:48:11.194Z,2.06
2023-02-01T07:49:50.982Z,1.42
2023-02-01T07:51:30.701Z,1.03
2023-02-01T07:53:10.475Z,0.51
2023-02-01T07:54:50.253Z,0.25
2023-02-01T07:56:30.056Z,0.25
2023-02-01T07:58:09.807Z,0.38
2023-02-01T07:59:49.624Z,0.25
2023-02-01T08:01:29.367Z,0.12
2023-02-01T08:03:09.063Z,0.38
2023-02-01T08:04:48.819Z,0.12
2023-02-01T08:06:28.675Z,0.25
2023-02-01T08:08:08.351Z,0.12
2023-02-01T08:09:48.232Z,0.12
2023-02-01T08:11:28.029Z,0.12
2023-02-01T08:13:07.651Z,0.25
2023-02-01T08:14:47.428Z,0.12
2023-02-01T08:16:27.199Z,0.25
2023-02-01T08:18:06.941Z,0.12
2023-02-01T08:19:46.708Z,0.12
2023-02-01T08:21:26.548Z,0.25
2023-02-01T08:23:06.242Z,0.25
2023-02-01T08:24:46.006Z,0.25
2023-02-01T08:26:25.757Z,0.37
2023-02-01T08:28:05.515Z,0.12
2023-02-01T08:29:45.286Z,0.12
2023-02-01T08:31:25.062Z,0.12
2023-02-01T08:33:04.796Z,0.25
2023-02-01T08:34:44.585Z,0.12
2023-02-01T08:36:24.325Z,0.25
2023-02-01T08:38:04.112Z,0.25
2023-02-01T08:39:43.884Z,0.25
2023-02-01T08:41:23.624Z,0.5
2023-02-01T08:43:03.405Z,0.5
2023-02-01T08:44:43.174Z,0.5
2023-02-01T08:46:22.985Z,0.37
2023-02-01T08:48:02.697Z,0.25
2023-02-01T08:49:42.441Z,0.25
2023-02-01T08:51:22.213Z,0.12
2023-02-01T08:53:01.974Z,0.25
2023-02-01T08:54:41.742Z,0.37
2023-02-01T08:56:21.581Z,0.37
2023-02-01T08:58:01.325Z,0.5
2023-02-01T08:59:41.182Z,0.63
2023-02-01T09:01:20.796Z,0.5
2023-02-01T09:03:00.557Z,0.38
2023-02-01T09:04:40.320Z,0.25
2023-02-01T09:06:20.098Z,0.38
2023-02-01T09:07:59.843Z,0.5
2023-02-01T09:09:39.607Z,0.76
2023-02-01T09:11:19.371Z,0.63
2023-02-01T09:12:59.151Z,0.63
2023-02-01T09:14:38.939Z,0.76
2023-02-01T09:16:18.768Z,0.89
2023-02-01T09:17:58.428Z,0.63
2023-02-01T09:19:38.367Z,1.53
2023-02-01T09:21:18.112Z,1.02
2023-02-01T09:22:57.899Z,1.4
2023-02-01T09:24:37.678Z,2.18
2023-02-01T09:26:17.258Z,3.61
2023-02-01T09:27:57.179Z,3.76
2023-02-01T09:29:36.794Z,4.58
2023-02-01T09:31:16.683Z,3.41
2023-02-01T09:32:56.484Z,2.61
2023-02-01T09:34:36.161Z,2.34
2023-02-01T09:36:16.004Z,1.16
2023-02-01T09:37:55.808Z,1.82
2023-02-01T09:39:35.625Z,2.08
2023-02-01T09:41:15.330Z,2.21
2023-02-01T09:42:55.091Z,2.21
2023-02-01T09:44:34.650Z,1.82
2023-02-01T09:46:14.564Z,1.56
2023-02-01T09:47:54.299Z,2.21
2023-02-01T09:49:34.178Z,1.69
2023-02-01T09:51:13.835Z,1.82
2023-02-01T09:52:53.652Z,1.16
2023-02-01T09:54:33.412Z,1.04
2023-02-01T09:56:13.125Z,1.29
2023-02-01T09:57:52.938Z,1.95
2023-02-01T09:59:32.768Z,2.21
2023-02-01T10:01:12.453Z,1.82
2023-02-01T10:02:52.253Z,1.3
2023-02-01T10:04:32.032Z,2.21
2023-02-01T10:06:11.766Z,1.56
2023-02-01T10:07:51.507Z,1.16
2023-02-01T10:09:31.214Z,1.16
2023-02-01T10:11:10.893Z,1.43
2023-02-01T10:12:50.806Z,2.61
2023-02-01T10:14:30.643Z,2.48
2023-02-01T10:16:10.303Z,1.04
2023-02-01T10:17:50.151Z,0.25
2023-02-01T10:19:29.911Z,0.77
2023-02-01T10:21:09.645Z,0.9
2023-02-01T10:22:49.375Z,1.42
2023-02-01T10:24:29.141Z,1.29
2023-02-01T10:26:08.923Z,1.82
2023-02-01T10:27:48.634Z,1.3
2023-02-01T10:29:28.491Z,1.16
2023-02-01T10:31:08.175Z,1.03
2023-02-01T10:32:47.976Z,1.42
2023-02-01T10:34:27.744Z,1.56
2023-02-01T10:36:07.479Z,1.04
2023-02-01T10:37:47.194Z,1.56
2023-02-01T10:39:27.074Z,1.82
2023-02-01T10:41:06.813Z,1.69
2023-02-01T10:42:46.546Z,3.54
2023-02-01T10:44:26.294Z,3.43
2023-02-01T10:46:06.012Z,3.43
2023-02-01T10:47:45.678Z,3.84
2023-02-01T10:49:25.612Z,1.31
2023-02-01T10:51:05.377Z,0.65
2023-02-01T10:52:45.133Z,1.04
2023-02-01T10:54:24.858Z,1.43
2023-02-01T10:56:04.496Z,1.04
2023-02-01T10:57:44.430Z,0.52
2023-02-01T10:59:24.190Z,0.9
2023-02-01T11:01:03.977Z,1.56
2023-02-01T11:02:43.711Z,1.56
2023-02-01T11:04:23.489Z,1.95
2023-02-01T11:06:03.252Z,1.04
2023-02-01T11:07:43.000Z,1.16
2023-02-01T11:09:22.799Z,1.04
2023-02-01T11:11:02.539Z,1.43
2023-02-01T11:12:42.301Z,1.96
2023-02-01T11:14:21.896Z,2.88
2023-02-01T11:16:01.834Z,6.24
2023-02-01T11:17:41.653Z,9.6
2023-02-01T11:19:21.359Z,6.38
2023-02-01T11:21:01.139Z,5.67
2023-02-01T11:22:40.864Z,3.06
2023-02-01T11:24:20.708Z,3.31
2023-02-01T11:26:00.357Z,6.03
2023-02-01T11:27:40.130Z,5.52
2023-02-01T11:29:19.961Z,5.11
2023-02-01T11:30:59.755Z,4.28
2023-02-01T11:32:39.481Z,5.23
2023-02-01T11:34:20.060Z,13.68
2023-02-01T11:35:58.989Z,12.88
2023-02-01T11:37:38.764Z,12.78
2023-02-01T11:39:18.563Z,12.34
2023-02-01T11:40:58.277Z,11.81
2023-02-01T11:42:38.078Z,12.15
2023-02-01T11:44:17.814Z,11.57
2023-02-01T11:45:57.423Z,12.12
2023-02-01T11:47:37.366Z,11.68
2023-02-01T11:50:56.910Z,11.75
2023-02-01T11:52:36.664Z,11.24
2023-02-01T11:54:16.414Z,11.04
2023-02-01T11:55:56.044Z,10.93
2023-02-01T11:57:35.811Z,10.92
2023-02-01T11:59:15.649Z,10.82
2023-02-01T12:00:55.437Z,10.87
2023-02-01T12:02:35.286Z,10.07
2023-02-01T12:04:15.017Z,10.13
2023-02-01T12:05:54.803Z,10.62
2023-02-01T12:07:34.532Z,10.26
2023-02-01T12:09:14.362Z,10.45
2023-02-01T12:10:54.124Z,10.12
2023-02-01T12:12:33.908Z,10.43
2023-02-01T12:14:13.468Z,9.41
2023-02-01T12:15:53.388Z,9.71
2023-02-01T12:17:33.034Z,9.76
2023-02-01T12:19:12.918Z,8.82
2023-02-01T12:20:52.694Z,8.93
2023-02-01T12:22:32.526Z,9.58
2023-02-01T12:24:12.066Z,9.28
2023-02-01T12:25:51.977Z,9.54
2023-02-01T12:27:31.733Z,9
2023-02-01T12:29:11.517Z,9.08
2023-02-01T12:30:51.255Z,9.47
2023-02-01T12:32:31.064Z,9.33
2023-02-01T12:34:10.668Z,9.09
2023-02-01T12:35:50.577Z,8.26
2023-02-01T12:37:30.337Z,2.01
2023-02-01T12:39:10.167Z,2.8
2023-02-01T12:40:49.826Z,2.11
2023-02-01T12:42:29.642Z,1.85
2023-02-01T12:44:09.369Z,0.92
2023-02-01T12:45:49.171Z,1.58
2023-02-01T12:47:28.911Z,1.71
2023-02-01T12:49:08.531Z,2.64
2023-02-01T12:50:48.501Z,2.65
2023-02-01T12:52:28.235Z,3.04
2023-02-01T12:54:08.019Z,3.99
2023-02-01T12:55:47.738Z,5.25
2023-02-01T12:57:27.546Z,4.86
2023-02-01T12:59:07.263Z,5.28
2023-02-01T13:00:46.899Z,5.01
2023-02-01T13:02:26.866Z,4.31
2023-02-01T13:04:06.485Z,4.03
2023-02-01T13:05:46.348Z,3.89
2023-02-01T13:07:26.086Z,3.76
2023-02-01T13:09:05.797Z,5.14
2023-02-01T13:10:45.517Z,4.71
2023-02-01T13:12:25.461Z,4.05
2023-02-01T13:14:05.145Z,4.32
2023-02-01T13:15:44.901Z,3.76
2023-02-01T13:17:24.724Z,2.54
2023-02-01T13:19:04.451Z,2.79
2023-02-01T13:20:44.222Z,2.79
2023-02-01T13:22:23.970Z,3.06
2023-02-01T13:24:03.765Z,2.93
2023-02-01T13:25:43.456Z,2.11
2023-02-01T13:27:23.263Z,2.25
2023-02-01T13:29:03.038Z,2.39
2023-02-01T13:30:42.799Z,1.85
2023-02-01T13:32:22.430Z,1.72
2023-02-01T13:34:02.294Z,1.45
2023-02-01T13:35:42.095Z,1.45
2023-02-01T13:37:21.849Z,1.45
2023-02-01T13:39:01.708Z,1.98
2023-02-01T13:40:41.391Z,2.11
2023-02-01T13:42:21.128Z,1.58
2023-02-01T13:44:00.930Z,1.98
2023-02-01T13:45:40.536Z,2.65
2023-02-01T13:47:20.486Z,2.79
2023-02-01T13:49:00.237Z,2.79
2023-02-01T13:50:39.967Z,3.07
2023-02-01T13:52:19.615Z,3.2
2023-02-01T13:53:59.468Z,2.79
2023-02-01T13:55:39.064Z,2.4
2023-02-01T13:57:19.000Z,2.79
2023-02-01T13:58:58.823Z,2.67
2023-02-01T14:00:38.545Z,2.79
2023-02-01T14:02:18.313Z,2.53
2023-02-01T14:03:58.107Z,2.53
2023-02-01T14:05:37.803Z,2.11
2023-02-01T14:08:57.291Z,1.72
2023-02-01T14:10:37.125Z,1.72
2023-02-01T14:12:16.925Z,1.72
2023-02-01T14:13:56.672Z,1.58
2023-02-01T14:15:36.385Z,1.71
2023-02-01T14:17:16.102Z,0.92
2023-02-01T14:18:55.955Z,0.78
2023-02-01T14:20:35.613Z,0.52
2023-02-01T14:22:15.493Z,0.39
2023-02-01T14:23:55.275Z,0.65
2023-02-01T14:25:34.930Z,1.04
2023-02-01T14:27:14.749Z,0.78
2023-02-01T14:28:54.591Z,0.52
2023-02-01T14:32:14.079Z,0.52
2023-02-01T14:33:53.846Z,0.39
2023-02-01T14:35:33.490Z,0.65
2023-02-01T14:38:53.121Z,1.04
2023-02-01T14:40:32.831Z,1.31
2023-02-01T14:42:12.663Z,0.91
2023-02-01T14:43:52.465Z,0.78
2023-02-01T14:45:32.146Z,0.78
2023-02-01T14:47:11.890Z,0.65
2023-02-01T14:48:51.734Z,0.52
2023-02-01T14:50:31.469Z,0.65
2023-02-01T14:52:11.231Z,0.78
2023-02-01T14:53:50.895Z,0.65
2023-02-01T14:55:30.608Z,0.52
2023-02-01T14:57:10.500Z,0.52
2023-02-01T14:58:50.344Z,0.52
2023-02-01T15:00:30.051Z,0.52
2023-02-01T15:02:09.816Z,0.52
2023-02-01T15:03:49.578Z,0.52
2023-02-01T15:05:29.343Z,0.52
2023-02-01T15:07:09.095Z,0.52
2023-02-01T15:08:48.898Z,0.26
2023-02-01T15:10:28.445Z,0.12
2023-02-01T15:12:08.376Z,0.12
2023-02-01T15:13:48.100Z,0.12
2023-02-01T15:15:27.928Z,0
2023-02-01T15:17:07.672Z,0
2023-02-01T15:18:47.265Z,0
2023-02-01T15:20:27.272Z,0
2023-02-01T15:22:06.880Z,0
2023-02-01T15:23:46.740Z,0
2023-02-01T15:25:26.326Z,0
2023-02-01T15:27:06.226Z,0
2023-02-01T15:28:45.868Z,0
2023-02-01T15:30:25.832Z,0
2023-02-01T15:32:05.583Z,0
2023-02-01T15:33:45.310Z,0
2023-02-01T15:35:24.981Z,0
2023-02-01T15:37:04.733Z,0
2023-02-01T15:38:44.619Z,0
2023-02-01T15:40:24.356Z,0
2023-02-01T15:42:04.152Z,0
2023-02-01T15:43:43.893Z,0
2023-02-01T15:45:23.469Z,0
2023-02-01T15:47:03.408Z,0
2023-02-01T15:48:43.209Z,0
2023-02-01T15:50:22.902Z,0
2023-02-01T15:52:02.763Z,0
2023-02-01T15:53:42.428Z,0
2023-02-01T15:55:22.090Z,0
2023-02-01T15:57:02.075Z,0
2023-02-01T15:58:41.769Z,0
2023-02-01T16:00:21.527Z,0
2023-02-01T16:02:01.176Z,0
2023-02-01T16:03:41.053Z,0
2023-02-01T16:05:20.937Z,0
2023-02-01T16:07:00.625Z,0
2023-02-01T16:08:40.339Z,0
2023-02-01T16:10:20.105Z,0
2023-02-01T16:11:59.871Z,0
2023-02-01T16:13:39.628Z,0
2023-02-01T16:15:19.384Z,0
2023-02-01T16:16:59.173Z,0
2023-02-01T16:18:38.942Z,0
2023-02-01T16:20:18.698Z,0
2023-02-01T16:23:38.245Z,0
2023-02-01T16:25:17.878Z,0
2023-02-01T16:26:57.770Z,0
2023-02-01T16:28:37.524Z,0
2023-02-01T16:30:17.293Z,0
2023-02-01T16:31:57.040Z,0
2023-02-01T16:35:16.575Z,0
2023-02-01T16:36:56.169Z,0
2023-02-01T16:38:36.101Z,0
2023-02-01T16:40:15.821Z,0
2023-02-01T16:41:55.709Z,0
2023-02-01T16:43:35.398Z,0
2023-02-01T16:45:15.008Z,0
2023-02-01T16:46:54.960Z,0
2023-02-01T16:48:34.737Z,0
2023-02-01T16:51:54.211Z,0
2023-02-01T16:53:34.015Z,0
2023-02-01T16:55:13.573Z,0
2023-02-01T16:56:53.335Z,0
2023-02-01T16:58:33.097Z,0
2023-02-01T17:00:12.904Z,0
2023-02-01T17:01:52.730Z,0
2023-02-01T17:03:32.569Z,0
2023-02-01T17:05:12.153Z,0
2023-02-01T17:06:51.920Z,0
2023-02-01T17:10:11.579Z,0
2023-02-01T17:11:51.313Z,0
2023-02-01T17:13:31.162Z,0
2023-02-01T17:15:10.855Z,0
2023-02-01T17:16:50.777Z,0
2023-02-01T17:18:30.434Z,0
2023-02-01T17:20:10.072Z,0
2023-02-01T17:21:49.785Z,0
2023-02-01T17:25:09.418Z,0
2023-02-01T17:26:49.218Z,0
2023-02-01T17:28:28.996Z,0
2023-02-01T17:30:08.786Z,0
2023-02-01T17:31:48.380Z,0
2023-02-01T17:33:28.338Z,0
2023-02-01T17:35:08.089Z,0
2023-02-01T17:36:47.829Z,0
2023-02-01T17:38:27.599Z,0
2023-02-01T17:40:07.287Z,0
2023-02-01T17:43:26.715Z,0
2023-02-01T17:45:06.461Z,0
2023-02-01T17:46:46.246Z,0
2023-02-01T17:48:26.176Z,0
2023-02-01T17:50:05.928Z,0
2023-02-01T17:51:45.693Z,0
2023-02-01T17:53:25.490Z,0
2023-02-01T17:55:05.070Z,0
2023-02-01T17:56:44.993Z,0
2023-02-01T17:58:24.789Z,0
2023-02-01T18:01:44.299Z,0
2023-02-01T18:03:24.076Z,0
2023-02-01T18:05:03.802Z,0
2023-02-01T18:06:43.586Z,0
2023-02-01T18:10:02.960Z,0
2023-02-01T18:11:42.936Z,0
2023-02-01T18:13:22.675Z,0
2023-02-01T18:15:02.223Z,0
2023-02-01T18:16:42.167Z,0
2023-02-01T18:20:01.590Z,0
2023-02-01T18:21:41.449Z,0
2023-02-01T18:23:21.197Z,0
2023-02-01T18:25:00.975Z,0
2023-02-01T18:26:40.753Z,0
2023-02-01T18:28:20.593Z,0
2023-02-01T18:30:00.285Z,0
2023-02-01T18:31:40.037Z,0
2023-02-01T18:33:19.804Z,0
2023-02-01T18:34:59.501Z,0
2023-02-01T18:36:39.318Z,0
2023-02-01T18:38:19.125Z,0
2023-02-01T18:39:58.693Z,0
2023-02-01T18:41:38.619Z,0
2023-02-01T18:43:18.211Z,0
2023-02-01T18:44:58.107Z,0
2023-02-01T18:46:37.817Z,0
2023-02-01T18:48:17.621Z,0
2023-02-01T18:49:57.344Z,0
2023-02-01T18:51:37.118Z,0
2023-02-01T18:53:16.889Z,0
2023-02-01T18:54:56.714Z,0
2023-02-01T18:56:36.339Z,0
2023-02-01T18:58:16.262Z,0
2023-02-01T18:59:55.859Z,0
2023-02-01T19:01:35.645Z,0
2023-02-01T19:03:15.473Z,0
2023-02-01T19:04:55.215Z,0
2023-02-01T19:06:35.056Z,0
2023-02-01T19:08:14.820Z,0
2023-02-01T19:11:34.328Z,0
2023-02-01T19:13:14.062Z,0
2023-02-01T19:14:53.734Z,0
2023-02-01T19:16:33.619Z,0
2023-02-01T19:18:13.321Z,0
2023-02-01T19:19:53.028Z,0
2023-02-01T19:21:32.909Z,0
2023-02-01T19:23:12.557Z,0
2023-02-01T19:24:52.429Z,0
2023-02-01T19:26:32.127Z,0
2023-02-01T19:28:11.918Z,0
2023-02-01T19:29:51.775Z,0
2023-02-01T19:31:31.497Z,0
2023-02-01T19:33:11.238Z,0
2023-02-01T19:34:51.024Z,0
2023-02-01T19:36:30.826Z,0
2023-02-01T19:38:10.580Z,0
2023-02-01T19:39:50.312Z,0
2023-02-01T19:41:30.122Z,0
2023-02-01T19:43:09.863Z,0
2023-02-01T19:44:49.637Z,0
2023-02-01T19:46:29.384Z,0
2023-02-01T19:48:09.076Z,0
2023-02-01T19:49:48.932Z,0
2023-02-01T19:51:28.598Z,0
2023-02-01T19:53:08.477Z,0
2023-02-01T19:54:48.140Z,0
2023-02-01T19:56:27.905Z,0
2023-02-01T19:58:07.778Z,0
2023-02-01T19:59:47.549Z,0
2023-02-01T20:01:26.328Z,0
2023-02-01T20:03:06.047Z,0
2023-02-01T20:04:45.791Z,0
2023-02-01T20:06:25.554Z,0
2023-02-01T20:08:05.379Z,0
2023-02-01T20:09:45.222Z,0
2023-02-01T20:13:04.782Z,0
2023-02-01T20:14:44.468Z,0
2023-02-01T20:16:24.255Z,0
2023-02-01T20:18:03.986Z,0
2023-02-01T20:19:43.699Z,0
2023-02-01T20:21:23.571Z,0
2023-02-01T20:23:03.218Z,0
2023-02-01T20:24:43.093Z,0
2023-02-01T20:26:23.572Z,0
2023-02-01T20:28:03.427Z,0
2023-02-01T20:29:43.232Z,0
2023-02-01T20:31:22.995Z,0
2023-02-01T20:33:02.792Z,0
2023-02-01T20:34:42.509Z,0
2023-02-01T20:36:22.198Z,0
2023-02-01T20:38:02.201Z,0
2023-02-01T20:39:41.690Z,0
2023-02-01T20:41:21.616Z,0
2023-02-01T20:44:41.194Z,0
2023-02-01T20:46:20.843Z,0
2023-02-01T20:48:00.535Z,0
2023-02-01T20:49:40.272Z,0
2023-02-01T20:51:20.191Z,0
2023-02-01T20:53:00.014Z,0
2023-02-01T20:54:39.758Z,0
2023-02-01T20:56:19.455Z,0
2023-02-01T20:57:59.269Z,0
2023-02-01T20:59:39.043Z,0
2023-02-01T21:01:18.778Z,0
2023-02-01T21:02:58.560Z,0
2023-02-01T21:04:38.344Z,0
2023-02-01T21:06:18.117Z,0
2023-02-01T21:07:57.716Z,0
2023-02-01T21:09:37.521Z,0
2023-02-01T21:11:17.322Z,0
2023-02-01T21:12:57.152Z,0
2023-02-01T21:14:37.003Z,0
2023-02-01T21:16:16.562Z,0
2023-02-01T21:17:56.451Z,0
2023-02-01T21:19:36.272Z,0
2023-02-01T21:21:15.906Z,0
2023-02-01T21:22:55.756Z,0
2023-02-01T21:24:35.492Z,0
2023-02-01T21:26:15.152Z,0
2023-02-01T21:27:55.036Z,0
2023-02-01T21:29:34.738Z,0
2023-02-01T21:31:14.444Z,0
2023-02-01T21:32:54.212Z,0
2023-02-01T21:34:34.135Z,0
2023-02-01T21:36:13.773Z,0
2023-02-01T21:37:53.538Z,0
2023-02-01T21:39:33.362Z,0
2023-02-01T21:41:13.044Z,0
2023-02-01T21:42:52.837Z,0
2023-02-01T21:44:32.624Z,0
2023-02-01T21:46:12.427Z,0
2023-02-01T21:47:52.229Z,0
2023-02-01T21:49:31.808Z,0
2023-02-01T21:51:11.578Z,0
2023-02-01T21:52:51.483Z,0
2023-02-01T21:54:31.125Z,0
2023-02-01T21:56:11.001Z,0
2023-02-01T21:57:50.786Z,0
2023-02-01T21:59:30.385Z,0
2023-02-01T22:01:10.155Z,0
2023-02-01T22:02:49.964Z,0
2023-02-01T22:04:29.686Z,0
2023-02-01T22:06:09.584Z,0
2023-02-01T22:07:49.389Z,0
2023-02-01T22:09:29.135Z,0
2023-02-01T22:11:08.837Z,0
2023-02-01T22:12:48.519Z,0
2023-02-01T22:14:28.371Z,0
2023-02-01T22:16:08.047Z,0
2023-02-01T22:17:47.817Z,0
2023-02-01T22:19:27.565Z,0
2023-02-01T22:21:07.350Z,0
2023-02-01T22:22:47.072Z,0
2023-02-01T22:24:26.838Z,0
2023-02-01T22:26:06.671Z,0
2023-02-01T22:27:46.380Z,0
2023-02-01T22:29:26.204Z,0
2023-02-01T22:31:06.095Z,0
2023-02-01T22:32:45.670Z,0
2023-02-01T22:34:25.555Z,0
2023-02-01T22:36:05.572Z,0
2023-02-01T22:37:45.101Z,0
2023-02-01T22:39:24.861Z,0
2023-02-01T22:41:04.633Z,0
2023-02-01T22:42:44.334Z,0
2023-02-01T22:44:24.000Z,0
2023-02-01T22:46:03.764Z,0
2023-02-01T22:47:43.544Z,0
2023-02-01T22:49:23.347Z,0
2023-02-01T22:51:03.039Z,0
2023-02-01T22:52:42.816Z,0
2023-02-01T22:54:22.587Z,0
2023-02-01T22:56:02.446Z,0
2023-02-01T22:57:42.163Z,0
2023-02-01T22:59:21.858Z,0
2023-02-01T23:01:01.618Z,0
2023-02-01T23:02:41.404Z,0
2023-02-01T23:04:21.292Z,0
2023-02-01T23:06:00.972Z,0
2023-02-01T23:07:40.678Z,0
2023-02-01T23:09:20.533Z,0
2023-02-01T23:11:00.202Z,0
2023-02-01T23:12:39.947Z,0
2023-02-01T23:14:19.726Z,0
2023-02-01T23:15:59.487Z,0
2023-02-01T23:17:39.338Z,0
2023-02-01T23:19:19.052Z,0
2023-02-01T23:20:58.782Z,0
2023-02-01T23:22:38.539Z,0
2023-02-01T23:24:18.334Z,0
2023-02-01T23:25:58.071Z,0
2023-02-01T23:27:37.870Z,0
2023-02-01T23:29:17.639Z,0
2023-02-01T23:30:57.464Z,0
2023-02-01T23:32:37.166Z,0
2023-02-01T23:34:16.987Z,0
2023-02-01T23:35:56.665Z,0
2023-02-01T23:37:36.473Z,0
2023-02-01T23:39:16.212Z,0
2023-02-01T23:40:55.952Z,0
2023-02-01T23:42:35.753Z,0
2023-02-01T23:44:15.497Z,0
2023-02-01T23:45:55.388Z,0
2023-02-01T23:47:35.021Z,0
2023-02-01T23:49:14.762Z,0
2023-02-01T23:50:54.531Z,0
2023-02-01T23:52:34.380Z,0
2023-02-01T23:54:14.087Z,0
2023-02-01T23:55:53.816Z,0
2023-02-01T23:57:33.691Z,0
2023-02-01T23:59:13.392Z,0
